createdAt,value
2019-05-15T00:00:53.821Z,10.02
2019-05-15T00:01:53.820Z,9.94
2019-05-15T00:02:53.814Z,9.97
2019-05-15T00:03:53.776Z,10.01
2019-05-15T00:04:53.804Z,9.95
2019-05-15T00:05:53.879Z,9.91
2019-05-15T00:06:53.824Z,9.82
2019-05-15T00:07:53.838Z,9.79
2019-05-15T00:08:53.770Z,9.83
2019-05-15T00:09:53.778Z,9.79
2019-05-15T00:10:53.785Z,9.79
2019-05-15T00:11:53.746Z,9.74
2019-05-15T00:12:54.104Z,9.77
2019-05-15T00:13:53.674Z,9.72
2019-05-15T00:14:53.766Z,9.79
2019-05-15T00:15:53.654Z,9.79
2019-05-15T00:16:53.710Z,9.80
2019-05-15T00:17:53.687Z,9.77
2019-05-15T00:18:53.612Z,9.69
2019-05-15T00:19:53.595Z,9.74
2019-05-15T00:20:53.587Z,9.72
2019-05-15T00:21:53.574Z,9.74
2019-05-15T00:22:53.603Z,9.64
2019-05-15T00:23:53.588Z,9.72
2019-05-15T00:24:53.537Z,9.76
2019-05-15T00:25:53.534Z,9.68
2019-05-15T00:26:53.518Z,9.69
2019-05-15T00:27:53.553Z,9.69
2019-05-15T00:28:53.505Z,9.66
2019-05-15T00:29:53.491Z,9.64
2019-05-15T00:30:53.480Z,9.64
2019-05-15T00:31:53.473Z,9.72
2019-05-15T00:32:53.489Z,9.64
2019-05-15T00:33:53.482Z,9.66
2019-05-15T00:34:53.428Z,9.65
2019-05-15T00:35:53.415Z,9.64
2019-05-15T00:36:53.400Z,9.76
2019-05-15T00:37:53.387Z,9.76
2019-05-15T00:38:53.407Z,9.77
2019-05-15T00:39:53.372Z,9.79
2019-05-15T00:40:53.360Z,9.83
2019-05-15T00:41:54.755Z,9.83
2019-05-15T00:42:53.374Z,9.83
2019-05-15T00:43:53.328Z,9.79
2019-05-15T00:44:53.330Z,9.84
2019-05-15T00:45:53.300Z,9.64
2019-05-15T00:46:53.292Z,9.73
2019-05-15T00:47:53.280Z,9.69
2019-05-15T00:48:53.302Z,9.68
2019-05-15T00:49:53.261Z,9.65
2019-05-15T00:50:53.243Z,9.68
2019-05-15T00:51:53.233Z,9.59
2019-05-15T00:52:53.232Z,9.68
2019-05-15T00:53:53.241Z,9.74
2019-05-15T00:54:53.207Z,9.79
2019-05-15T00:55:53.196Z,9.76
2019-05-15T00:56:53.181Z,9.79
2019-05-15T00:57:53.169Z,9.80
2019-05-15T00:58:53.192Z,9.82
2019-05-15T00:59:53.146Z,9.83
2019-05-15T01:00:53.185Z,9.89
2019-05-15T01:01:53.131Z,9.80
2019-05-15T01:02:53.149Z,9.84
2019-05-15T01:03:53.108Z,9.84
2019-05-15T01:04:53.100Z,9.80
2019-05-15T01:05:53.086Z,9.77
2019-05-15T01:06:53.089Z,9.73
2019-05-15T01:07:53.086Z,9.76
2019-05-15T01:08:53.083Z,9.68
2019-05-15T01:09:53.038Z,9.72
2019-05-15T01:10:53.025Z,9.66
2019-05-15T01:11:53.026Z,9.65
2019-05-15T01:12:53.010Z,9.66
2019-05-15T01:13:53.034Z,9.56
2019-05-15T01:14:52.988Z,9.55
2019-05-15T01:15:52.977Z,9.65
2019-05-15T01:16:52.963Z,9.55
2019-05-15T01:17:52.957Z,9.59
2019-05-15T01:18:52.978Z,9.58
2019-05-15T01:19:52.933Z,9.58
2019-05-15T01:20:52.924Z,9.58
2019-05-15T01:21:53.065Z,9.56
2019-05-15T01:22:52.974Z,9.43
2019-05-15T01:23:52.992Z,9.55
2019-05-15T01:24:52.895Z,9.44
2019-05-15T01:25:52.927Z,9.46
2019-05-15T01:26:52.920Z,9.41
2019-05-15T01:27:52.864Z,9.39
2019-05-15T01:28:52.879Z,9.46
2019-05-15T01:29:52.831Z,9.40
2019-05-15T01:30:52.825Z,9.41
2019-05-15T01:31:52.810Z,9.41
2019-05-15T01:32:52.823Z,9.34
2019-05-15T01:33:52.792Z,9.25
2019-05-15T01:34:52.802Z,9.29
2019-05-15T01:35:52.760Z,9.28
2019-05-15T01:36:52.743Z,9.26
2019-05-15T01:37:52.762Z,9.32
2019-05-15T01:38:52.759Z,9.31
2019-05-15T01:39:52.750Z,9.31
2019-05-15T01:40:52.701Z,9.31
2019-05-15T01:41:52.686Z,9.31
2019-05-15T01:42:52.677Z,9.32
2019-05-15T01:43:52.668Z,9.28
2019-05-15T01:44:52.661Z,9.23
2019-05-15T01:45:52.687Z,9.31
2019-05-15T01:46:52.640Z,9.23
2019-05-15T01:47:52.629Z,9.23
2019-05-15T01:48:52.649Z,9.21
2019-05-15T01:49:52.604Z,9.25
2019-05-15T01:50:52.594Z,9.22
2019-05-15T01:51:52.580Z,9.18
2019-05-15T01:52:52.578Z,9.28
2019-05-15T01:53:52.596Z,9.22
2019-05-15T01:54:52.554Z,9.18
2019-05-15T01:55:52.543Z,9.19
2019-05-15T01:56:52.541Z,9.18
2019-05-15T01:57:52.521Z,9.10
2019-05-15T01:58:52.530Z,9.08
2019-05-15T01:59:57.085Z,9.19
2019-05-15T02:00:53.519Z,9.06
2019-05-15T02:01:52.473Z,9.11
2019-05-15T02:02:52.461Z,9.06
2019-05-15T02:03:52.452Z,9.08
2019-05-15T02:04:52.444Z,9.06
2019-05-15T02:05:52.463Z,9.03
2019-05-15T02:06:52.424Z,8.99
2019-05-15T02:07:52.429Z,9.02
2019-05-15T02:08:52.395Z,9.00
2019-05-15T02:09:52.383Z,9.03
2019-05-15T02:10:52.409Z,8.97
2019-05-15T02:11:52.366Z,8.94
2019-05-15T02:12:52.351Z,8.95
2019-05-15T02:13:52.375Z,8.99
2019-05-15T02:14:52.331Z,8.91
2019-05-15T02:15:52.318Z,8.87
2019-05-15T02:16:52.315Z,8.89
2019-05-15T02:17:52.302Z,8.91
2019-05-15T02:18:52.311Z,8.89
2019-05-15T02:19:52.280Z,8.82
2019-05-15T02:20:52.298Z,8.88
2019-05-15T02:21:52.254Z,8.84
2019-05-15T02:22:52.244Z,8.84
2019-05-15T02:23:52.265Z,8.84
2019-05-15T02:24:52.230Z,8.70
2019-05-15T02:25:52.215Z,8.76
2019-05-15T02:26:52.220Z,8.70
2019-05-15T02:27:52.189Z,8.71
2019-05-15T02:28:52.215Z,8.78
2019-05-15T02:29:52.173Z,8.79
2019-05-15T02:30:52.161Z,8.70
2019-05-15T02:31:52.184Z,8.67
2019-05-15T02:32:52.136Z,8.76
2019-05-15T02:33:52.128Z,8.70
2019-05-15T02:34:52.127Z,8.67
2019-05-15T02:35:52.107Z,8.67
2019-05-15T02:36:52.092Z,8.70
2019-05-15T02:37:52.114Z,8.64
2019-05-15T02:38:52.070Z,8.67
2019-05-15T02:39:52.069Z,8.67
2019-05-15T02:40:52.054Z,8.66
2019-05-15T02:41:52.044Z,8.60
2019-05-15T02:42:52.052Z,8.61
2019-05-15T02:43:52.018Z,8.52
2019-05-15T02:44:52.021Z,8.53
2019-05-15T02:45:52.010Z,8.55
2019-05-15T02:46:51.992Z,8.51
2019-05-15T02:47:52.009Z,8.55
2019-05-15T02:48:51.983Z,8.49
2019-05-15T02:49:51.954Z,8.52
2019-05-15T02:50:51.942Z,8.41
2019-05-15T02:51:51.930Z,8.51
2019-05-15T02:52:51.953Z,8.42
2019-05-15T02:53:51.931Z,8.49
2019-05-15T02:54:51.919Z,8.38
2019-05-15T02:55:51.895Z,8.45
2019-05-15T02:56:51.884Z,8.46
2019-05-15T02:57:51.888Z,8.44
2019-05-15T02:58:51.863Z,8.46
2019-05-15T02:59:51.897Z,8.44
2019-05-15T03:00:53.515Z,8.41
2019-05-15T03:01:51.824Z,8.36
2019-05-15T03:02:51.846Z,8.38
2019-05-15T03:03:51.834Z,8.38
2019-05-15T03:04:51.795Z,8.34
2019-05-15T03:05:51.784Z,8.36
2019-05-15T03:06:51.776Z,8.38
2019-05-15T03:07:51.799Z,8.38
2019-05-15T03:08:51.748Z,8.42
2019-05-15T03:09:51.738Z,8.44
2019-05-15T03:10:51.728Z,8.42
2019-05-15T03:11:51.717Z,8.56
2019-05-15T03:12:51.713Z,8.55
2019-05-15T03:13:51.733Z,8.49
2019-05-15T03:14:51.685Z,8.58
2019-05-15T03:15:51.677Z,8.66
2019-05-15T03:16:51.669Z,8.64
2019-05-15T03:17:51.660Z,8.64
2019-05-15T03:18:55.580Z,8.51
2019-05-15T03:19:51.652Z,8.60
2019-05-15T03:20:51.624Z,8.49
2019-05-15T03:21:51.610Z,8.52
2019-05-15T03:22:51.601Z,8.53
2019-05-15T03:23:51.623Z,8.52
2019-05-15T03:24:51.615Z,8.46
2019-05-15T03:25:51.579Z,8.42
2019-05-15T03:26:51.577Z,8.45
2019-05-15T03:27:51.555Z,8.46
2019-05-15T03:28:51.537Z,8.42
2019-05-15T03:29:51.548Z,8.45
2019-05-15T03:31:15.647Z,8.41
2019-05-15T03:32:07.479Z,8.38
2019-05-15T03:33:00.758Z,8.38
2019-05-15T03:33:54.720Z,8.44
2019-05-15T03:34:56.116Z,8.44
2019-05-15T03:35:54.476Z,8.44
2019-05-15T03:36:53.001Z,8.41
2019-05-15T03:37:51.449Z,8.38
2019-05-15T03:38:51.438Z,8.44
2019-05-15T03:39:52.051Z,8.44
2019-05-15T03:40:51.409Z,8.45
2019-05-15T03:41:51.413Z,8.46
2019-05-15T03:42:51.398Z,8.41
2019-05-15T03:43:51.383Z,8.45
2019-05-15T03:44:51.374Z,8.51
2019-05-15T03:45:51.403Z,8.51
2019-05-15T03:46:51.347Z,8.45
2019-05-15T03:47:51.343Z,8.49
2019-05-15T03:48:51.334Z,8.52
2019-05-15T03:49:51.323Z,8.48
2019-05-15T03:50:51.357Z,8.46
2019-05-15T03:51:51.300Z,8.46
2019-05-15T03:52:51.285Z,8.51
2019-05-15T03:53:51.275Z,8.46
2019-05-15T03:54:51.284Z,8.52
2019-05-15T03:55:51.284Z,8.55
2019-05-15T03:56:51.249Z,8.60
2019-05-15T03:57:51.241Z,8.53
2019-05-15T03:58:51.225Z,8.51
2019-05-15T03:59:51.229Z,8.55
2019-05-15T04:00:51.238Z,8.52
2019-05-15T04:01:51.202Z,8.58
2019-05-15T04:02:51.186Z,8.63
2019-05-15T04:03:51.177Z,8.56
2019-05-15T04:04:51.158Z,8.53
2019-05-15T04:05:51.172Z,8.58
2019-05-15T04:06:51.153Z,8.63
2019-05-15T04:07:51.129Z,8.67
2019-05-15T04:08:51.126Z,8.73
2019-05-15T04:09:51.109Z,8.71
2019-05-15T04:10:51.119Z,8.71
2019-05-15T04:11:51.086Z,8.82
2019-05-15T04:12:51.070Z,8.73
2019-05-15T04:13:51.062Z,8.78
2019-05-15T04:14:51.085Z,8.79
2019-05-15T04:15:51.040Z,8.85
2019-05-15T04:16:51.061Z,8.79
2019-05-15T04:17:51.024Z,8.84
2019-05-15T04:18:51.017Z,8.88
2019-05-15T04:19:51.030Z,8.82
2019-05-15T04:20:51.034Z,8.84
2019-05-15T04:21:50.990Z,8.91
2019-05-15T04:22:50.978Z,8.89
2019-05-15T04:23:50.964Z,8.91
2019-05-15T04:24:50.941Z,8.91
2019-05-15T04:25:50.935Z,8.88
2019-05-15T04:26:50.953Z,8.89
2019-05-15T04:27:50.909Z,8.94
2019-05-15T04:28:50.904Z,8.94
2019-05-15T04:29:50.950Z,8.88
2019-05-15T04:30:50.936Z,8.92
2019-05-15T04:32:00.585Z,8.94
2019-05-15T04:32:51.910Z,8.85
2019-05-15T04:33:50.913Z,8.85
2019-05-15T04:34:50.890Z,8.87
2019-05-15T04:35:50.903Z,8.94
2019-05-15T04:36:50.920Z,8.91
2019-05-15T04:37:50.848Z,8.91
2019-05-15T04:38:50.849Z,8.92
2019-05-15T04:39:50.838Z,8.97
2019-05-15T04:40:50.858Z,8.92
2019-05-15T04:41:50.876Z,9.02
2019-05-15T04:42:50.809Z,8.92
2019-05-15T04:43:50.795Z,9.04
2019-05-15T04:44:50.800Z,9.08
2019-05-15T04:45:50.820Z,9.23
2019-05-15T04:46:50.810Z,9.16
2019-05-15T04:47:50.754Z,9.19
2019-05-15T04:48:50.888Z,9.28
2019-05-15T04:49:50.736Z,9.22
2019-05-15T04:50:50.709Z,9.28
2019-05-15T04:51:50.763Z,9.23
2019-05-15T04:52:50.701Z,9.39
2019-05-15T04:53:50.722Z,9.28
2019-05-15T04:54:50.679Z,9.29
2019-05-15T04:55:50.671Z,9.36
2019-05-15T04:56:51.207Z,9.40
2019-05-15T04:57:50.635Z,9.40
2019-05-15T04:58:51.262Z,9.43
2019-05-15T04:59:50.628Z,9.39
2019-05-15T05:00:50.760Z,9.41
2019-05-15T05:01:53.343Z,9.46
2019-05-15T05:02:51.605Z,9.54
2019-05-15T05:03:50.592Z,9.56
2019-05-15T05:04:50.572Z,9.54
2019-05-15T05:05:50.670Z,9.58
2019-05-15T05:06:50.611Z,9.56
2019-05-15T05:07:50.547Z,9.68
2019-05-15T05:08:50.521Z,9.65
2019-05-15T05:09:50.523Z,9.59
2019-05-15T05:10:50.511Z,9.66
2019-05-15T05:11:50.454Z,9.66
2019-05-15T05:12:51.017Z,9.66
2019-05-15T05:13:51.779Z,9.64
2019-05-15T05:14:50.404Z,9.68
2019-05-15T05:15:50.785Z,9.79
2019-05-15T05:16:50.433Z,9.77
2019-05-15T05:17:50.369Z,9.74
2019-05-15T05:18:50.356Z,9.80
2019-05-15T05:19:51.414Z,9.86
2019-05-15T05:20:50.342Z,9.91
2019-05-15T05:21:50.362Z,9.89
2019-05-15T05:22:50.313Z,9.92
2019-05-15T05:23:50.305Z,9.98
2019-05-15T05:24:50.298Z,9.95
2019-05-15T05:25:50.286Z,9.99
2019-05-15T05:26:50.310Z,10.04
2019-05-15T05:27:50.266Z,10.07
2019-05-15T05:28:50.255Z,10.10
2019-05-15T05:29:50.238Z,10.13
2019-05-15T05:30:50.229Z,10.12
2019-05-15T05:31:50.250Z,10.05
2019-05-15T05:32:50.213Z,10.22
2019-05-15T05:33:50.201Z,10.25
2019-05-15T05:34:50.193Z,10.19
2019-05-15T05:35:50.179Z,10.19
2019-05-15T05:36:50.164Z,10.25
2019-05-15T05:37:50.186Z,10.25
2019-05-15T05:38:50.149Z,10.23
2019-05-15T05:39:50.137Z,10.22
2019-05-15T05:40:50.269Z,10.25
2019-05-15T05:41:50.143Z,10.37
2019-05-15T05:42:50.101Z,10.42
2019-05-15T05:43:50.088Z,10.41
2019-05-15T05:44:50.099Z,10.40
2019-05-15T05:45:50.103Z,10.37
2019-05-15T05:46:50.063Z,10.40
2019-05-15T05:47:50.075Z,10.48
2019-05-15T05:48:50.040Z,10.46
2019-05-15T05:49:50.025Z,10.59
2019-05-15T05:50:50.336Z,10.60
2019-05-15T05:51:50.004Z,10.57
2019-05-15T05:52:50.029Z,10.74
2019-05-15T05:53:50.600Z,10.67
2019-05-15T05:54:50.002Z,10.72
2019-05-15T05:55:52.920Z,10.84
2019-05-15T05:56:49.980Z,10.79
2019-05-15T05:57:50.175Z,10.79
2019-05-15T05:58:49.933Z,10.78
2019-05-15T05:59:49.925Z,10.78
2019-05-15T06:00:49.965Z,10.90
2019-05-15T06:01:49.898Z,10.89
2019-05-15T06:02:52.315Z,10.86
2019-05-15T06:03:49.876Z,10.89
2019-05-15T06:04:49.868Z,10.96
2019-05-15T06:05:50.070Z,11.05
2019-05-15T06:07:06.037Z,11.05
2019-05-15T06:07:51.182Z,11.08
2019-05-15T06:08:49.820Z,11.02
2019-05-15T06:09:49.809Z,11.04
2019-05-15T06:10:50.097Z,11.10
2019-05-15T06:11:49.829Z,11.12
2019-05-15T06:12:49.836Z,11.17
2019-05-15T06:13:52.449Z,11.18
2019-05-15T06:14:49.756Z,11.23
2019-05-15T06:15:49.747Z,11.32
2019-05-15T06:16:49.739Z,11.26
2019-05-15T06:17:49.760Z,11.41
2019-05-15T06:18:49.719Z,11.47
2019-05-15T06:19:49.708Z,11.44
2019-05-15T06:20:50.124Z,11.44
2019-05-15T06:21:56.741Z,11.57
2019-05-15T06:22:50.736Z,11.62
2019-05-15T06:23:55.781Z,11.68
2019-05-15T06:24:50.658Z,11.65
2019-05-15T06:25:49.662Z,11.65
2019-05-15T06:26:49.629Z,11.78
2019-05-15T06:27:49.641Z,11.75
2019-05-15T06:28:49.614Z,11.91
2019-05-15T06:29:49.602Z,11.87
2019-05-15T06:30:49.718Z,12.03
2019-05-15T06:31:49.583Z,12.04
2019-05-15T06:33:04.457Z,11.97
2019-05-15T06:33:50.555Z,12.17
2019-05-15T06:34:49.545Z,12.20
2019-05-15T06:35:49.545Z,12.15
2019-05-15T06:36:49.565Z,12.22
2019-05-15T06:37:49.549Z,12.36
2019-05-15T06:38:49.508Z,12.40
2019-05-15T06:39:49.577Z,12.57
2019-05-15T06:40:49.490Z,12.67
2019-05-15T06:41:49.470Z,12.68
2019-05-15T06:42:49.497Z,12.83
2019-05-15T06:43:49.806Z,12.93
2019-05-15T06:44:49.629Z,13.04
2019-05-15T06:45:49.632Z,13.16
2019-05-15T06:46:49.560Z,13.33
2019-05-15T06:47:49.440Z,13.44
2019-05-15T06:48:49.507Z,13.41
2019-05-15T06:49:49.467Z,13.47
2019-05-15T06:50:49.561Z,13.63
2019-05-15T06:51:49.431Z,13.63
2019-05-15T06:52:49.465Z,13.79
2019-05-15T06:53:49.415Z,13.78
2019-05-15T06:54:49.387Z,13.79
2019-05-15T06:55:49.385Z,13.89
2019-05-15T06:56:49.476Z,13.93
2019-05-15T06:57:49.438Z,13.90
2019-05-15T06:58:49.308Z,14.03
2019-05-15T06:59:49.329Z,14.10
2019-05-15T07:00:49.752Z,14.12
2019-05-15T07:01:49.378Z,14.23
2019-05-15T07:02:49.378Z,14.29
2019-05-15T07:03:49.315Z,14.23
2019-05-15T07:04:49.292Z,14.32
2019-05-15T07:05:50.596Z,14.36
2019-05-15T07:06:49.267Z,14.43
2019-05-15T07:07:49.252Z,14.41
2019-05-15T07:08:49.879Z,14.45
2019-05-15T07:09:49.236Z,14.41
2019-05-15T07:10:49.246Z,14.33
2019-05-15T07:11:49.212Z,14.29
2019-05-15T07:12:51.552Z,14.22
2019-05-15T07:13:49.240Z,14.25
2019-05-15T07:14:49.165Z,14.23
2019-05-15T07:15:49.851Z,14.29
2019-05-15T07:16:49.168Z,14.25
2019-05-15T07:17:49.157Z,14.28
2019-05-15T07:18:49.403Z,14.40
2019-05-15T07:19:49.124Z,14.72
2019-05-15T07:20:49.278Z,14.81
2019-05-15T07:21:49.099Z,14.82
2019-05-15T07:22:49.284Z,14.84
2019-05-15T07:23:49.780Z,14.82
2019-05-15T07:24:49.046Z,14.79
2019-05-15T07:25:50.008Z,14.79
2019-05-15T07:26:49.094Z,14.91
2019-05-15T07:27:49.019Z,15.02
2019-05-15T07:28:49.080Z,14.99
2019-05-15T07:29:49.005Z,15.21
2019-05-15T07:30:49.697Z,15.27
2019-05-15T07:31:48.929Z,15.57
2019-05-15T07:32:48.933Z,15.82
2019-05-15T07:33:49.339Z,15.92
2019-05-15T07:34:48.975Z,16.04
2019-05-15T07:35:49.610Z,16.26
2019-05-15T07:36:49.412Z,16.36
2019-05-15T07:37:48.868Z,16.47
2019-05-15T07:38:48.890Z,16.49
2019-05-15T07:39:48.999Z,17.02
2019-05-15T07:40:55.681Z,17.38
2019-05-15T07:41:49.829Z,18.81
2019-05-15T07:42:49.207Z,19.58
2019-05-15T07:43:50.606Z,19.26
2019-05-15T07:44:48.794Z,19.45
2019-05-15T07:45:53.558Z,19.55
2019-05-15T07:46:49.872Z,19.27
2019-05-15T07:47:49.075Z,19.02
2019-05-15T07:48:49.266Z,19.07
2019-05-15T07:49:49.294Z,19.00
2019-05-15T07:50:49.754Z,18.89
2019-05-15T07:51:48.999Z,18.77
2019-05-15T07:52:48.719Z,18.59
2019-05-15T07:53:49.170Z,18.43
2019-05-15T07:54:48.919Z,18.44
2019-05-15T07:55:50.258Z,18.58
2019-05-15T07:56:48.959Z,18.56
2019-05-15T07:57:49.656Z,18.66
2019-05-15T07:58:52.571Z,18.63
2019-05-15T07:59:48.632Z,18.60
2019-05-15T08:00:49.325Z,18.93
2019-05-15T08:01:49.015Z,18.88
2019-05-15T08:02:48.598Z,18.83
2019-05-15T08:03:58.971Z,18.83
2019-05-15T08:04:49.581Z,18.92
2019-05-15T08:05:58.654Z,19.49
2019-05-15T08:06:49.627Z,20.19
2019-05-15T08:07:49.133Z,20.81
2019-05-15T08:08:48.846Z,21.72
2019-05-15T08:09:48.799Z,22.55
2019-05-15T08:10:49.207Z,23.46
2019-05-15T08:11:48.849Z,24.42
2019-05-15T08:12:49.438Z,24.88
2019-05-15T08:13:48.761Z,24.68
2019-05-15T08:14:50.867Z,24.43
2019-05-15T08:15:48.981Z,24.02
2019-05-15T08:16:48.676Z,23.71
2019-05-15T08:18:49.429Z,23.47
2019-05-15T08:19:48.734Z,23.93
2019-05-15T08:20:49.213Z,24.43
2019-05-15T08:21:51.789Z,24.61
2019-05-15T08:22:49.054Z,24.60
2019-05-15T08:23:48.649Z,24.60
2019-05-15T08:24:48.524Z,24.95
2019-05-15T08:25:48.757Z,25.14
2019-05-15T08:26:05.717Z,23.34
2019-05-15T08:26:48.775Z,25.44
2019-05-15T08:27:48.628Z,25.65
2019-05-15T08:28:48.861Z,26.09
2019-05-15T08:29:48.700Z,26.62
2019-05-15T08:30:49.307Z,26.68
2019-05-15T08:31:48.553Z,26.18
2019-05-15T08:32:51.361Z,25.48
2019-05-15T08:33:48.365Z,24.85
2019-05-15T08:34:48.260Z,24.23
2019-05-15T08:35:51.579Z,23.81
2019-05-15T08:36:48.459Z,23.51
2019-05-15T08:37:49.046Z,23.23
2019-05-15T08:38:48.729Z,23.15
2019-05-15T08:39:48.752Z,23.24
2019-05-15T08:40:49.001Z,23.43
2019-05-15T08:41:48.555Z,23.46
2019-05-15T08:42:56.525Z,23.41
2019-05-15T08:43:49.171Z,23.27
2019-05-15T08:44:48.976Z,23.20
2019-05-15T08:45:49.751Z,23.39
2019-05-15T08:46:48.220Z,23.87
2019-05-15T08:47:49.204Z,23.88
2019-05-15T08:48:49.091Z,23.77
2019-05-15T08:49:48.469Z,23.73
2019-05-15T08:50:48.968Z,24.03
2019-05-15T08:51:48.654Z,24.78
2019-05-15T08:52:48.812Z,24.81
2019-05-15T08:53:48.779Z,25.07
2019-05-15T08:54:48.603Z,24.74
2019-05-15T08:55:48.234Z,24.43
2019-05-15T08:56:48.539Z,24.03
2019-05-15T08:57:55.615Z,23.74
2019-05-15T08:58:49.050Z,23.46
2019-05-15T08:59:48.808Z,23.09
2019-05-15T09:00:52.303Z,23.02
2019-05-15T09:01:48.936Z,22.91
2019-05-15T09:02:48.824Z,22.98
2019-05-15T09:03:48.879Z,23.00
2019-05-15T09:04:48.676Z,22.70
2019-05-15T09:05:48.713Z,22.66
2019-05-15T09:06:49.739Z,22.45
2019-05-15T09:07:48.712Z,22.33
2019-05-15T09:08:49.097Z,22.62
2019-05-15T09:09:48.732Z,23.10
2019-05-15T09:10:50.232Z,22.91
2019-05-15T09:11:48.382Z,22.83
2019-05-15T09:12:50.200Z,23.09
2019-05-15T09:13:53.805Z,24.32
2019-05-15T09:14:48.867Z,25.62
2019-05-15T09:15:48.286Z,25.72
2019-05-15T09:16:49.021Z,25.31
2019-05-15T09:17:48.773Z,24.96
2019-05-15T09:18:48.595Z,24.47
2019-05-15T09:19:48.275Z,24.14
2019-05-15T09:20:49.153Z,23.88
2019-05-15T09:21:49.120Z,24.23
2019-05-15T09:22:49.062Z,25.01
2019-05-15T09:23:49.812Z,25.90
2019-05-15T09:24:48.887Z,27.20
2019-05-15T09:25:49.293Z,27.87
2019-05-15T09:26:48.748Z,28.79
2019-05-15T09:27:48.792Z,28.76
2019-05-15T09:28:49.389Z,28.52
2019-05-15T09:29:48.444Z,28.75
2019-05-15T09:30:48.299Z,28.62
2019-05-15T09:31:48.280Z,28.63
2019-05-15T09:32:48.425Z,29.59
2019-05-15T09:33:49.266Z,30.77
2019-05-15T09:34:54.205Z,31.66
2019-05-15T09:35:49.219Z,32.51
2019-05-15T09:36:48.617Z,31.69
2019-05-15T09:37:48.851Z,30.72
2019-05-15T09:38:49.148Z,29.90
2019-05-15T09:39:48.981Z,29.08
2019-05-15T09:40:50.156Z,28.69
2019-05-15T09:41:48.754Z,29.10
2019-05-15T09:42:48.715Z,29.19
2019-05-15T09:43:48.509Z,28.17
2019-05-15T09:44:48.660Z,27.36
2019-05-15T09:45:49.259Z,26.63
2019-05-15T09:46:48.868Z,26.25
2019-05-15T09:47:48.320Z,26.28
2019-05-15T09:48:51.403Z,26.37
2019-05-15T09:49:48.519Z,26.44
2019-05-15T09:50:49.229Z,26.06
2019-05-15T09:51:49.045Z,25.87
2019-05-15T09:52:50.116Z,25.60
2019-05-15T09:53:48.403Z,25.26
2019-05-15T09:54:49.059Z,25.14
2019-05-15T09:55:49.365Z,24.92
2019-05-15T09:56:49.405Z,24.91
2019-05-15T09:57:49.119Z,24.73
2019-05-15T09:58:48.797Z,24.58
2019-05-15T09:59:48.789Z,24.54
2019-05-15T10:00:52.336Z,24.28
2019-05-15T10:01:48.467Z,24.10
2019-05-15T10:02:48.518Z,24.50
2019-05-15T10:03:48.463Z,24.39
2019-05-15T10:04:49.590Z,24.24
2019-05-15T10:05:48.461Z,24.13
2019-05-15T10:06:48.606Z,23.78
2019-05-15T10:07:47.340Z,23.47
2019-05-15T10:08:49.016Z,23.10
2019-05-15T10:09:48.783Z,22.78
2019-05-15T10:10:48.731Z,22.43
2019-05-15T10:11:49.178Z,22.17
2019-05-15T10:12:49.480Z,22.04
2019-05-15T10:13:47.246Z,21.76
2019-05-15T10:14:49.181Z,21.60
2019-05-15T10:15:50.653Z,21.46
2019-05-15T10:16:48.623Z,21.42
2019-05-15T10:17:50.763Z,21.36
2019-05-15T10:18:50.812Z,21.33
2019-05-15T10:19:48.804Z,21.24
2019-05-15T10:20:47.173Z,21.14
2019-05-15T10:21:53.044Z,21.09
2019-05-15T10:22:48.471Z,21.02
2019-05-15T10:23:49.401Z,21.02
2019-05-15T10:24:50.889Z,20.97
2019-05-15T10:25:48.573Z,20.88
2019-05-15T10:26:49.047Z,20.92
2019-05-15T10:27:48.768Z,20.96
2019-05-15T10:28:49.333Z,20.96
2019-05-15T10:29:48.435Z,20.97
2019-05-15T10:30:49.339Z,21.09
2019-05-15T10:31:48.244Z,21.11
2019-05-15T10:32:48.681Z,21.06
2019-05-15T10:33:49.118Z,21.02
2019-05-15T10:34:47.062Z,20.92
2019-05-15T10:35:47.014Z,20.90
2019-05-15T10:36:49.375Z,20.80
2019-05-15T10:37:48.707Z,20.72
2019-05-15T10:38:48.893Z,20.63
2019-05-15T10:39:52.076Z,20.62
2019-05-15T10:41:00.206Z,20.51
2019-05-15T10:41:48.324Z,20.48
2019-05-15T10:42:49.453Z,20.34
2019-05-15T10:43:55.632Z,20.22
2019-05-15T10:44:48.800Z,20.18
2019-05-15T10:45:50.115Z,20.06
2019-05-15T10:46:48.254Z,19.95
2019-05-15T10:47:49.400Z,19.86
2019-05-15T10:48:49.401Z,19.69
2019-05-15T10:49:48.415Z,19.55
2019-05-15T10:50:46.885Z,19.44
2019-05-15T10:51:46.838Z,19.33
2019-05-15T10:52:48.938Z,19.36
2019-05-15T10:53:48.714Z,19.26
2019-05-15T10:54:46.810Z,19.22
2019-05-15T10:55:49.226Z,19.12
2019-05-15T10:56:46.787Z,19.12
2019-05-15T10:57:46.799Z,19.08
2019-05-15T10:58:50.128Z,19.07
2019-05-15T10:59:47.799Z,19.18
2019-05-15T11:00:49.274Z,19.15
2019-05-15T11:01:48.772Z,19.09
2019-05-15T11:02:48.879Z,19.11
2019-05-15T11:03:49.250Z,19.04
2019-05-15T11:04:48.721Z,19.04
2019-05-15T11:05:48.953Z,19.07
2019-05-15T11:06:48.875Z,18.96
2019-05-15T11:07:48.228Z,18.88
2019-05-15T11:08:51.000Z,18.83
2019-05-15T11:09:48.957Z,18.80
2019-05-15T11:10:49.427Z,18.66
2019-05-15T11:11:48.674Z,18.63
2019-05-15T11:12:46.635Z,18.66
2019-05-15T11:13:46.612Z,18.62
2019-05-15T11:14:46.593Z,18.45
2019-05-15T11:15:48.876Z,18.47
2019-05-15T11:16:48.696Z,18.58
2019-05-15T11:17:48.961Z,18.52
2019-05-15T11:18:48.196Z,18.52
2019-05-15T11:19:49.919Z,18.44
2019-05-15T11:20:48.691Z,18.45
2019-05-15T11:21:48.545Z,18.37
2019-05-15T11:22:49.643Z,18.31
2019-05-15T11:23:49.198Z,18.28
2019-05-15T11:24:48.706Z,18.31
2019-05-15T11:25:48.473Z,18.18
2019-05-15T11:26:49.649Z,18.05
2019-05-15T11:27:48.384Z,18.08
2019-05-15T11:28:49.422Z,18.05
2019-05-15T11:29:47.772Z,18.00
2019-05-15T11:30:48.924Z,18.03
2019-05-15T11:31:48.602Z,18.00
2019-05-15T11:32:48.706Z,17.87
2019-05-15T11:33:49.096Z,17.94
2019-05-15T11:34:49.099Z,17.87
2019-05-15T11:35:57.884Z,17.87
2019-05-15T11:36:48.243Z,17.89
2019-05-15T11:37:48.873Z,17.82
2019-05-15T11:38:48.609Z,17.90
2019-05-15T11:39:47.225Z,18.00
2019-05-15T11:40:46.313Z,17.97
2019-05-15T11:41:49.019Z,17.98
2019-05-15T11:42:48.573Z,17.94
2019-05-15T11:43:46.282Z,18.01
2019-05-15T11:44:48.419Z,18.15
2019-05-15T11:45:48.209Z,18.23
2019-05-15T11:46:46.250Z,18.37
2019-05-15T11:47:48.260Z,18.56
2019-05-15T11:48:46.235Z,18.59
2019-05-15T11:49:46.231Z,18.78
2019-05-15T11:50:46.213Z,18.88
2019-05-15T11:51:46.205Z,18.95
2019-05-15T11:52:46.216Z,18.98
2019-05-15T11:53:46.174Z,19.04
2019-05-15T11:54:46.165Z,19.21
2019-05-15T11:55:48.147Z,19.24
2019-05-15T11:56:48.722Z,19.26
2019-05-15T11:57:50.370Z,19.44
2019-05-15T11:58:47.132Z,19.36
2019-05-15T11:59:48.528Z,19.49
2019-05-15T12:00:48.991Z,19.48
2019-05-15T12:01:46.090Z,19.58
2019-05-15T12:02:46.094Z,19.62
2019-05-15T12:03:46.100Z,19.49
2019-05-15T12:04:46.061Z,19.54
2019-05-15T12:05:46.050Z,19.54
2019-05-15T12:06:58.299Z,19.47
2019-05-15T12:07:47.802Z,19.41
2019-05-15T12:08:46.056Z,19.29
2019-05-15T12:09:46.014Z,19.31
2019-05-15T12:10:46.003Z,19.33
2019-05-15T12:11:46.065Z,19.27
2019-05-15T12:12:46.000Z,19.30
2019-05-15T12:13:45.972Z,19.27
2019-05-15T12:14:46.015Z,19.18
2019-05-15T12:15:48.248Z,19.18
2019-05-15T12:17:04.705Z,19.07
2019-05-15T12:17:48.502Z,18.95
2019-05-15T12:18:48.222Z,18.93
2019-05-15T12:19:54.793Z,18.90
2019-05-15T12:20:48.644Z,18.90
2019-05-15T12:21:48.598Z,18.83
2019-05-15T12:22:48.350Z,18.86
2019-05-15T12:23:48.324Z,18.78
2019-05-15T12:24:49.519Z,18.86
2019-05-15T12:25:48.540Z,18.90
2019-05-15T12:26:48.705Z,18.88
2019-05-15T12:27:48.853Z,18.84
2019-05-15T12:28:45.814Z,18.86
2019-05-15T12:29:48.960Z,18.90
2019-05-15T12:30:45.788Z,18.86
2019-05-15T12:31:45.777Z,18.75
2019-05-15T12:32:49.029Z,18.73
2019-05-15T12:33:45.763Z,18.70
2019-05-15T12:34:45.747Z,18.63
2019-05-15T12:35:45.769Z,18.62
2019-05-15T12:36:53.181Z,18.53
2019-05-15T12:37:46.708Z,18.52
2019-05-15T12:38:50.019Z,18.37
2019-05-15T12:39:45.695Z,18.35
2019-05-15T12:59:46.497Z,18.08
2019-05-15T13:00:45.527Z,18.10
2019-05-15T13:01:45.494Z,18.13
2019-05-15T13:02:45.446Z,18.19
2019-05-15T13:03:45.437Z,18.13
2019-05-15T13:04:45.421Z,18.07
2019-05-15T13:05:45.407Z,18.08
2019-05-15T13:06:49.492Z,18.19
2019-05-15T13:07:48.260Z,18.11
2019-05-15T13:08:45.378Z,18.16
2019-05-15T13:09:45.378Z,18.20
2019-05-15T13:10:45.355Z,18.22
2019-05-15T13:11:45.377Z,18.22
2019-05-15T13:12:59.204Z,18.28
2019-05-15T13:13:48.362Z,18.20
2019-05-15T13:14:45.348Z,18.20
2019-05-15T13:15:45.332Z,18.19
2019-05-15T13:16:47.900Z,18.16
2019-05-15T13:17:45.318Z,18.18
2019-05-15T13:18:45.271Z,18.10
2019-05-15T13:19:45.269Z,18.13
2019-05-15T13:20:45.257Z,18.07
2019-05-15T13:21:45.251Z,18.04
2019-05-15T13:22:45.254Z,18.05